sensor_id;sensor_type;location;lat;lon;timestamp;P1;P2;P0
74432;PMS7003;62865;53.146;23.172;2022-12-29T00:05:05;22.7;21;12.7
74432;PMS7003;62865;53.146;23.172;2022-12-29T00:09:53;20.8;17.5;10.3
74432;PMS7003;62865;53.146;23.172;2022-12-29T00:15:01;21.8;20;12.3
74432;PMS7003;62865;53.146;23.172;2022-12-29T00:19:43;25.3;20;11.7
74432;PMS7003;62865;53.146;23.172;2022-12-29T00:24:43;23.3;20.3;12.3
74432;PMS7003;62865;53.146;23.172;2022-12-29T00:30:10;20.4;17.8;11.8
74432;PMS7003;62865;53.146;23.172;2022-12-29T00:34:33;20.3;17.3;10.5
74432;PMS7003;62865;53.146;23.172;2022-12-29T00:39:31;21.4;19.2;12
74432;PMS7003;62865;53.146;23.172;2022-12-29T00:44:47;23.3;20.3;12.8
74432;PMS7003;62865;53.146;23.172;2022-12-29T00:49:37;22;17.8;10.8
74432;PMS7003;62865;53.146;23.172;2022-12-29T00:55:07;22.4;18.2;11.8
74432;PMS7003;62865;53.146;23.172;2022-12-29T00:59:57;19;16.8;12.4
74432;PMS7003;62865;53.146;23.172;2022-12-29T01:04:47;18;16.4;10.6
74432;PMS7003;62865;53.146;23.172;2022-12-29T01:09:33;19.6;16;11.4
74432;PMS7003;62865;53.146;23.172;2022-12-29T01:15:01;17.8;16.2;10.6
74432;PMS7003;62865;53.146;23.172;2022-12-29T01:20:11;22.4;19.4;12.2
74432;PMS7003;62865;53.146;23.172;2022-12-29T01:24:39;22.4;19.4;12.2
74432;PMS7003;62865;53.146;23.172;2022-12-29T01:29:41;17.8;15.8;11
74432;PMS7003;62865;53.146;23.172;2022-12-29T01:34:37;20.2;16;10.8
74432;PMS7003;62865;53.146;23.172;2022-12-29T01:39:33;22.8;18.8;12
74432;PMS7003;62865;53.146;23.172;2022-12-29T01:45:10;25.2;20;12.8
74432;PMS7003;62865;53.146;23.172;2022-12-29T01:50:03;21.3;19;12.8
74432;PMS7003;62865;53.146;23.172;2022-12-29T01:54:59;18.4;15.8;10.4
74432;PMS7003;62865;53.146;23.172;2022-12-29T01:59:38;23.4;18.4;12
74432;PMS7003;62865;53.146;23.172;2022-12-29T02:04:33;23.6;18.8;12.8
74432;PMS7003;62865;53.146;23.172;2022-12-29T02:10:07;25;20.2;13.4
74432;PMS7003;62865;53.146;23.172;2022-12-29T02:14:37;20.6;18.2;11.8
74432;PMS7003;62865;53.146;23.172;2022-12-29T02:19:48;24;19.8;13.4
74432;PMS7003;62865;53.146;23.172;2022-12-29T02:24:59;23.8;19.4;12.4
74432;PMS7003;62865;53.146;23.172;2022-12-29T02:29:49;23.2;21.6;13.6
74432;PMS7003;62865;53.146;23.172;2022-12-29T02:35:14;21.4;19.2;12.8
74432;PMS7003;62865;53.146;23.172;2022-12-29T02:40:04;21.4;19.2;12.8
74432;PMS7003;62865;53.146;23.172;2022-12-29T02:44:56;25.8;21;12.6
74432;PMS7003;62865;53.146;23.172;2022-12-29T02:49:45;19.5;17.5;11
74432;PMS7003;62865;53.146;23.172;2022-12-29T02:54:53;20.4;18.2;12.6
74432;PMS7003;62865;53.146;23.172;2022-12-29T03:00:14;25;20.8;13.4
74432;PMS7003;62865;53.146;23.172;2022-12-29T03:04:58;25;20.8;13.4
74432;PMS7003;62865;53.146;23.172;2022-12-29T03:09:35;21;17.4;11.2
74432;PMS7003;62865;53.146;23.172;2022-12-29T03:14:35;20.6;17.8;11
74432;PMS7003;62865;53.146;23.172;2022-12-29T03:19:34;19.2;17;11.6
74432;PMS7003;62865;53.146;23.172;2022-12-29T03:25:14;22;17.8;11.4
74432;PMS7003;62865;53.146;23.172;2022-12-29T03:30:04;22;17.8;11.4
74432;PMS7003;62865;53.146;23.172;2022-12-29T03:35:02;19.2;16.2;10.8
74432;PMS7003;62865;53.146;23.172;2022-12-29T03:39:33;19.4;17.6;11.4
74432;PMS7003;62865;53.146;23.172;2022-12-29T03:44:41;19.6;17.4;11.2
74432;PMS7003;62865;53.146;23.172;2022-12-29T03:50:11;20.2;17.6;11.6
74432;PMS7003;62865;53.146;23.172;2022-12-29T03:54:33;20.2;17.6;11.6
74432;PMS7003;62865;53.146;23.172;2022-12-29T03:59:47;22.6;17.8;11.4
74432;PMS7003;62865;53.146;23.172;2022-12-29T04:04:51;21.4;18;11.2
74432;PMS7003;62865;53.146;23.172;2022-12-29T04:09:41;23.4;19.8;13
74432;PMS7003;62865;53.146;23.172;2022-12-29T04:15:13;23.4;19;12.6
74432;PMS7003;62865;53.146;23.172;2022-12-29T04:20:04;23.4;19;12.6
74432;PMS7003;62865;53.146;23.172;2022-12-29T04:25:06;23;19.3;12.7
74432;PMS7003;62865;53.146;23.172;2022-12-29T04:29:33;22.8;18.8;12.3
74432;PMS7003;62865;53.146;23.172;2022-12-29T04:34:51;23.8;20.8;12.6
74432;PMS7003;62865;53.146;23.172;2022-12-29T04:40:11;24;19.8;12.8
74432;PMS7003;62865;53.146;23.172;2022-12-29T04:44:43;24;19.8;12.8
74432;PMS7003;62865;53.146;23.172;2022-12-29T04:49:49;24.3;20.5;11.5
74432;PMS7003;62865;53.146;23.172;2022-12-29T04:54:49;23;20.3;13
74432;PMS7003;62865;53.146;23.172;2022-12-29T04:59:41;22.2;19.6;13
74432;PMS7003;62865;53.146;23.172;2022-12-29T05:05:09;21;19.3;12.7
74432;PMS7003;62865;53.146;23.172;2022-12-29T05:09:59;21;20.3;12.3
74432;PMS7003;62865;53.146;23.172;2022-12-29T05:14:43;24.7;22.3;13
74432;PMS7003;62865;53.146;23.172;2022-12-29T05:19:33;19.4;15.6;10.2
74432;PMS7003;62865;53.146;23.172;2022-12-29T05:24:39;21;19.4;12
74432;PMS7003;62865;53.146;23.172;2022-12-29T05:30:12;20.5;15.8;9.3
74432;PMS7003;62865;53.146;23.172;2022-12-29T05:34:43;20.5;15.8;9.3
74432;PMS7003;62865;53.146;23.172;2022-12-29T05:40:02;24.3;21;13.3
74432;PMS7003;62865;53.146;23.172;2022-12-29T05:45:13;17.3;15.3;9.8
74432;PMS7003;62865;53.146;23.172;2022-12-29T05:50:11;19.5;17.3;11.8
74432;PMS7003;62865;53.146;23.172;2022-12-29T05:55:01;19.5;17.3;11.8
74432;PMS7003;62865;53.146;23.172;2022-12-29T06:00:04;21.5;18.5;13
74432;PMS7003;62865;53.146;23.172;2022-12-29T06:04:31;22.4;18.6;11.8
74432;PMS7003;62865;53.146;23.172;2022-12-29T06:09:31;21;17.5;11.5
74432;PMS7003;62865;53.146;23.172;2022-12-29T06:15:01;21.5;18.5;10.5
74432;PMS7003;62865;53.146;23.172;2022-12-29T06:20:11;20.8;18.6;11.6
74432;PMS7003;62865;53.146;23.172;2022-12-29T06:24:39;20.8;18.6;11.6
74432;PMS7003;62865;53.146;23.172;2022-12-29T06:29:47;23.5;19.5;12
74432;PMS7003;62865;53.146;23.172;2022-12-29T06:35:11;21.3;18.3;12.3
74432;PMS7003;62865;53.146;23.172;2022-12-29T06:40:01;21.3;18.3;12.3
74432;PMS7003;62865;53.146;23.172;2022-12-29T06:45:06;22.3;20.3;12.7
74432;PMS7003;62865;53.146;23.172;2022-12-29T06:50:06;20.3;16.7;11.3
74432;PMS7003;62865;53.146;23.172;2022-12-29T06:54:43;24;21.3;13.7
74432;PMS7003;62865;53.146;23.172;2022-12-29T06:59:33;22.6;19.4;12.2
74432;PMS7003;62865;53.146;23.172;2022-12-29T07:05:01;22;18;12.5
74432;PMS7003;62865;53.146;23.172;2022-12-29T07:10:13;26;19.3;11.3
74432;PMS7003;62865;53.146;23.172;2022-12-29T07:14:39;26;19.3;11.3
74432;PMS7003;62865;53.146;23.172;2022-12-29T07:19:49;22.5;19;11.5
74432;PMS7003;62865;53.146;23.172;2022-12-29T07:25:02;22.5;19;12.3
74432;PMS7003;62865;53.146;23.172;2022-12-29T07:30:14;16.8;14;8.8
74432;PMS7003;62865;53.146;23.172;2022-12-29T07:35:02;16.8;14;8.8
74432;PMS7003;62865;53.146;23.172;2022-12-29T07:40:02;24;19.5;12.5
74432;PMS7003;62865;53.146;23.172;2022-12-29T07:44:41;18.5;18.3;11.3
74432;PMS7003;62865;53.146;23.172;2022-12-29T07:49:31;19.3;16.8;12.5
74432;PMS7003;62865;53.146;23.172;2022-12-29T07:54:49;18;15;10.5
74432;PMS7003;62865;53.146;23.172;2022-12-29T08:00:14;20;16.6;10.8
74432;PMS7003;62865;53.146;23.172;2022-12-29T08:04:43;20;16.6;10.8
74432;PMS7003;62865;53.146;23.172;2022-12-29T08:09:51;19.7;17;11
74432;PMS7003;62865;53.146;23.172;2022-12-29T08:15:13;15.7;15;10
74432;PMS7003;62865;53.146;23.172;2022-12-29T08:20:17;17.3;14.5;10
74432;PMS7003;62865;53.146;23.172;2022-12-29T08:25:08;17.3;14.5;10
74432;PMS7003;62865;53.146;23.172;2022-12-29T08:29:57;18.8;15.8;9.3
74432;PMS7003;62865;53.146;23.172;2022-12-29T08:34:54;15.3;14.8;10.5
74432;PMS7003;62865;53.146;23.172;2022-12-29T08:39:51;22;16.8;9.8
74432;PMS7003;62865;53.146;23.172;2022-12-29T08:45:04;20.5;16.5;10
74432;PMS7003;62865;53.146;23.172;2022-12-29T08:50:04;16.5;14.5;9
74432;PMS7003;62865;53.146;23.172;2022-12-29T08:54:31;21;18;10
74432;PMS7003;62865;53.146;23.172;2022-12-29T09:35:12;16.9;13.9;9.3
74432;PMS7003;62865;53.146;23.172;2022-12-29T09:40:17;16.8;13.4;8.4
74432;PMS7003;62865;53.146;23.172;2022-12-29T09:44:52;16.8;13.4;8.4
74432;PMS7003;62865;53.146;23.172;2022-12-29T09:49:33;17;13.8;8.8
74432;PMS7003;62865;53.146;23.172;2022-12-29T09:55:08;13.5;11;7.5
74432;PMS7003;62865;53.146;23.172;2022-12-29T10:00:05;16.5;14.5;9.5
74432;PMS7003;62865;53.146;23.172;2022-12-29T10:04:40;20.3;18.3;10.7
74432;PMS7003;62865;53.146;23.172;2022-12-29T10:10:13;17.3;15;9
74432;PMS7003;62865;53.146;23.172;2022-12-29T10:14:45;20;17.5;10
74432;PMS7003;62865;53.146;23.172;2022-12-29T10:20:10;14.8;12.8;9.3
74432;PMS7003;62865;53.146;23.172;2022-12-29T10:25:16;18;14;8.5
74432;PMS7003;62865;53.146;23.172;2022-12-29T10:30:14;17.3;15.5;9.5
74432;PMS7003;62865;53.146;23.172;2022-12-29T10:34:34;17.3;15.5;9.5
74432;PMS7003;62865;53.146;23.172;2022-12-29T10:39:50;16;13.8;10.2
74432;PMS7003;62865;53.146;23.172;2022-12-29T10:45:04;16.5;15.3;10
74432;PMS7003;62865;53.146;23.172;2022-12-29T10:50:14;12.8;12.3;8.5
74432;PMS7003;62865;53.146;23.172;2022-12-29T10:54:44;12.8;12.3;8.5
74432;PMS7003;62865;53.146;23.172;2022-12-29T11:00:14;19.3;16.8;10.3
74432;PMS7003;62865;53.146;23.172;2022-12-29T11:04:43;19.3;16.8;10.3
74432;PMS7003;62865;53.146;23.172;2022-12-29T11:09:32;19.5;15.5;10
74432;PMS7003;62865;53.146;23.172;2022-12-29T11:15:11;12.8;12.5;9
74432;PMS7003;62865;53.146;23.172;2022-12-29T11:20:24;16.7;13.3;9.7
74432;PMS7003;62865;53.146;23.172;2022-12-29T11:24:52;16.7;13.3;9.7
74432;PMS7003;62865;53.146;23.172;2022-12-29T11:29:36;17.5;14.5;8.8
74432;PMS7003;62865;53.146;23.172;2022-12-29T11:35:17;16.2;13.6;9.4
74432;PMS7003;62865;53.146;23.172;2022-12-29T11:40:06;17;15;9.7
74432;PMS7003;62865;53.146;23.172;2022-12-29T11:44:34;15.5;14.3;9.8
74432;PMS7003;62865;53.146;23.172;2022-12-29T11:50:18;15.8;14;9.4
74432;PMS7003;62865;53.146;23.172;2022-12-29T11:54:56;15.8;14;9.4
74432;PMS7003;62865;53.146;23.172;2022-12-29T11:59:49;13;12.2;8.2
74432;PMS7003;62865;53.146;23.172;2022-12-29T12:05:16;13;12;8.5
74432;PMS7003;62865;53.146;23.172;2022-12-29T12:10:20;12.3;10.3;7.5
74432;PMS7003;62865;53.146;23.172;2022-12-29T12:14:34;12.3;10.3;7.5
74432;PMS7003;62865;53.146;23.172;2022-12-29T12:19:59;15.8;12.8;9.3
74432;PMS7003;62865;53.146;23.172;2022-12-29T12:25:09;11.5;11;7.8
74432;PMS7003;62865;53.146;23.172;2022-12-29T12:30:10;16.8;13;8.8
74432;PMS7003;62865;53.146;23.172;2022-12-29T12:34:46;15.2;12.6;8.6
74432;PMS7003;62865;53.146;23.172;2022-12-29T12:40:21;16;14;9.4
74432;PMS7003;62865;53.146;23.172;2022-12-29T12:44:46;16;14;9.4
74432;PMS7003;62865;53.146;23.172;2022-12-29T12:50:50;15.6;13.6;8.6
74432;PMS7003;62865;53.146;23.172;2022-12-29T12:55:18;14.8;12.6;9
74432;PMS7003;62865;53.146;23.172;2022-12-29T13:00:16;15;11.6;8.6
74432;PMS7003;62865;53.146;23.172;2022-12-29T13:05:16;14.8;13.2;10
74432;PMS7003;62865;53.146;23.172;2022-12-29T13:09:45;14.8;13.2;10
74432;PMS7003;62865;53.146;23.172;2022-12-29T13:14:44;12;11.4;8
74432;PMS7003;62865;53.146;23.172;2022-12-29T13:20:19;13.4;12.2;8.4
74432;PMS7003;62865;53.146;23.172;2022-12-29T13:24:45;13.4;12.2;8.4
74432;PMS7003;62865;53.146;23.172;2022-12-29T13:29:46;15;13.2;9.2
74432;PMS7003;62865;53.146;23.172;2022-12-29T13:34:56;17.4;13.2;8
74432;PMS7003;62865;53.146;23.172;2022-12-29T13:39:47;14.6;13.4;9
74432;PMS7003;62865;53.146;23.172;2022-12-29T13:45:02;14.2;11.8;8.4
74432;PMS7003;62865;53.146;23.172;2022-12-29T13:49:54;16.4;11.8;8.6
74432;PMS7003;62865;53.146;23.172;2022-12-29T13:54:57;15;11.8;8.2
74432;PMS7003;62865;53.146;23.172;2022-12-29T14:00:11;13.4;12;8.6
74432;PMS7003;62865;53.146;23.172;2022-12-29T14:05:26;16.6;13;9
74432;PMS7003;62865;53.146;23.172;2022-12-29T14:10:23;15.8;12.6;8.6
74432;PMS7003;62865;53.146;23.172;2022-12-29T14:14:44;15.8;12.6;8.6
74432;PMS7003;62865;53.146;23.172;2022-12-29T14:20:15;14.2;12;8
74432;PMS7003;62865;53.146;23.172;2022-12-29T14:24:56;13;12;9
74432;PMS7003;62865;53.146;23.172;2022-12-29T14:29:47;15.2;11.8;7.8
74432;PMS7003;62865;53.146;23.172;2022-12-29T14:35:36;13.5;13;9.5
74432;PMS7003;62865;53.146;23.172;2022-12-29T14:40:09;13.5;13;9.5
74432;PMS7003;62865;53.146;23.172;2022-12-29T14:44:55;14;11.4;7.8
74432;PMS7003;62865;53.146;23.172;2022-12-29T14:50:06;14;12.8;9
74432;PMS7003;62865;53.146;23.172;2022-12-29T14:55:32;17;15;9.8
74432;PMS7003;62865;53.146;23.172;2022-12-29T15:00:17;13.2;12;8.4
74432;PMS7003;62865;53.146;23.172;2022-12-29T15:04:44;13.2;12;8.4
74432;PMS7003;62865;53.146;23.172;2022-12-29T15:10:07;14.6;13.2;8.8
74432;PMS7003;62865;53.146;23.172;2022-12-29T15:14:56;16.6;14;9.8
74432;PMS7003;62865;53.146;23.172;2022-12-29T15:20:14;15.2;12.4;8.4
74432;PMS7003;62865;53.146;23.172;2022-12-29T15:25:16;16;13.8;8.8
74432;PMS7003;62865;53.146;23.172;2022-12-29T15:29:56;16;13.8;8.8
74432;PMS7003;62865;53.146;23.172;2022-12-29T15:34:32;19.8;16.4;10.2
74432;PMS7003;62865;53.146;23.172;2022-12-29T15:40:04;17.8;15.4;10.2
74432;PMS7003;62865;53.146;23.172;2022-12-29T15:44:46;18.4;15.4;9.8
74432;PMS7003;62865;53.146;23.172;2022-12-29T15:50:21;16.8;14.4;9
74432;PMS7003;62865;53.146;23.172;2022-12-29T15:54:32;16.8;14.4;9
74432;PMS7003;62865;53.146;23.172;2022-12-29T16:00:21;13.4;11.4;7.6
74432;PMS7003;62865;53.146;23.172;2022-12-29T16:04:56;17;13.4;8.8
74432;PMS7003;62865;53.146;23.172;2022-12-29T16:09:58;16.5;15.3;9.8
74432;PMS7003;62865;53.146;23.172;2022-12-29T16:15:16;17.2;14.8;9.6
74432;PMS7003;62865;53.146;23.172;2022-12-29T16:19:54;17.2;14.8;9.6
74432;PMS7003;62865;53.146;23.172;2022-12-29T16:25:17;18;15.2;9.8
74432;PMS7003;62865;53.146;23.172;2022-12-29T16:30:16;18;15.2;9.8
74432;PMS7003;62865;53.146;23.172;2022-12-29T16:35:12;19;14.6;9.6
74432;PMS7003;62865;53.146;23.172;2022-12-29T16:40:29;16.2;13.8;9.6
74432;PMS7003;62865;53.146;23.172;2022-12-29T16:44:44;16.2;13.8;9.6
74432;PMS7003;62865;53.146;23.172;2022-12-29T16:50:10;17.6;16;9.8
74432;PMS7003;62865;53.146;23.172;2022-12-29T16:54:56;18;14.4;10.4
74432;PMS7003;62865;53.146;23.172;2022-12-29T16:59:57;19;16.2;10
74432;PMS7003;62865;53.146;23.172;2022-12-29T17:05:17;17.8;14.4;10.4
74432;PMS7003;62865;53.146;23.172;2022-12-29T17:09:56;17.8;14.4;10.4
74432;PMS7003;62865;53.146;23.172;2022-12-29T17:14:43;16.4;14;9.6
74432;PMS7003;62865;53.146;23.172;2022-12-29T17:19:59;18.8;15.8;10.6
74432;PMS7003;62865;53.146;23.172;2022-12-29T17:25:17;18.6;16;10.4
74432;PMS7003;62865;53.146;23.172;2022-12-29T17:30:19;17.2;15.2;11
74432;PMS7003;62865;53.146;23.172;2022-12-29T17:34:40;17.2;15.2;11
74432;PMS7003;62865;53.146;23.172;2022-12-29T17:40:06;16.6;14.4;10.2
74432;PMS7003;62865;53.146;23.172;2022-12-29T17:44:34;16.4;14;9.8
74432;PMS7003;62865;53.146;23.172;2022-12-29T17:49:32;20.2;15.6;10.8
74432;PMS7003;62865;53.146;23.172;2022-12-29T17:55:04;15.8;14.4;10.4
74432;PMS7003;62865;53.146;23.172;2022-12-29T17:59:52;18.4;15.2;10
74432;PMS7003;62865;53.146;23.172;2022-12-29T18:04:54;18.4;15.6;10.6
74432;PMS7003;62865;53.146;23.172;2022-12-29T18:09:42;18.4;15.2;10
74432;PMS7003;62865;53.146;23.172;2022-12-29T18:14:57;17.4;16;11.4
74432;PMS7003;62865;53.146;23.172;2022-12-29T18:20:18;19.6;15.2;10.2
74432;PMS7003;62865;53.146;23.172;2022-12-29T18:24:42;19.6;15.2;10.2
74432;PMS7003;62865;53.146;23.172;2022-12-29T18:29:56;17.6;16.8;10.6
74432;PMS7003;62865;53.146;23.172;2022-12-29T18:34:34;19.8;18;11
74432;PMS7003;62865;53.146;23.172;2022-12-29T18:39:32;19.2;17;10.8
74432;PMS7003;62865;53.146;23.172;2022-12-29T18:45:17;20.4;18.4;11.6
74432;PMS7003;62865;53.146;23.172;2022-12-29T18:49:32;20.4;18.4;11.6
74432;PMS7003;62865;53.146;23.172;2022-12-29T18:55:09;19;15.8;10.8
74432;PMS7003;62865;53.146;23.172;2022-12-29T18:59:46;18.8;17;10.6
74432;PMS7003;62865;53.146;23.172;2022-12-29T19:05:13;18.4;17.4;11.2
74432;PMS7003;62865;53.146;23.172;2022-12-29T19:10:14;21.8;18.6;12
74432;PMS7003;62865;53.146;23.172;2022-12-29T19:14:40;21.8;18.6;12
74432;PMS7003;62865;53.146;23.172;2022-12-29T19:20:09;17.8;16.4;10.4
74432;PMS7003;62865;53.146;23.172;2022-12-29T19:25:08;23.4;19.8;11
74432;PMS7003;62865;53.146;23.172;2022-12-29T19:29:33;21.4;17.6;11.2
74432;PMS7003;62865;53.146;23.172;2022-12-29T19:35:16;23.6;19.2;12.6
74432;PMS7003;62865;53.146;23.172;2022-12-29T19:39:54;23.6;19.2;12.6
74432;PMS7003;62865;53.146;23.172;2022-12-29T19:44:42;20.8;18.6;12.2
74432;PMS7003;62865;53.146;23.172;2022-12-29T19:49:56;23.8;20.6;12.2
74432;PMS7003;62865;53.146;23.172;2022-12-29T19:55:06;22.4;20.2;12
74432;PMS7003;62865;53.146;23.172;2022-12-29T20:00:08;23.2;17.8;11.2
74432;PMS7003;62865;53.146;23.172;2022-12-29T20:04:32;20.4;18.2;12
74432;PMS7003;62865;53.146;23.172;2022-12-29T20:09:54;22.2;18.2;11.2
74432;PMS7003;62865;53.146;23.172;2022-12-29T20:15:08;21.8;19.8;12.8
74432;PMS7003;62865;53.146;23.172;2022-12-29T20:19:32;21.6;18.8;11.4
74432;PMS7003;62865;53.146;23.172;2022-12-29T20:25:16;16.5;13.8;8.8
74432;PMS7003;62865;53.146;23.172;2022-12-29T20:29:44;16.5;13.8;8.8
74432;PMS7003;62865;53.146;23.172;2022-12-29T20:34:44;20.8;18.6;11.8
74432;PMS7003;62865;53.146;23.172;2022-12-29T20:39:44;20.8;18;12
74432;PMS7003;62865;53.146;23.172;2022-12-29T20:45:08;22.4;19.2;12
74432;PMS7003;62865;53.146;23.172;2022-12-29T20:50:16;21.6;19.4;12
74432;PMS7003;62865;53.146;23.172;2022-12-29T20:54:54;21.6;19.4;12
74432;PMS7003;62865;53.146;23.172;2022-12-29T21:00:06;22.6;18.2;11.4
74432;PMS7003;62865;53.146;23.172;2022-12-29T21:05:18;22.5;19.3;12
74432;PMS7003;62865;53.146;23.172;2022-12-29T21:09:32;22.5;19.3;12
74432;PMS7003;62865;53.146;23.172;2022-12-29T21:15:14;21.8;17.6;11.4
74432;PMS7003;62865;53.146;23.172;2022-12-29T21:19:42;21.8;17.6;11.4
74432;PMS7003;62865;53.146;23.172;2022-12-29T21:24:56;23.5;19.8;13.3
74432;PMS7003;62865;53.146;23.172;2022-12-29T21:29:46;26;22.3;13.5
74432;PMS7003;62865;53.146;23.172;2022-12-29T21:34:45;24;19.6;12.2
74432;PMS7003;62865;53.146;23.172;2022-12-29T21:40:08;24.2;19.4;13
74432;PMS7003;62865;53.146;23.172;2022-12-29T21:45:04;24;19.6;12
74432;PMS7003;62865;53.146;23.172;2022-12-29T21:50:18;21.4;18.2;12
74432;PMS7003;62865;53.146;23.172;2022-12-29T21:55:08;21.4;18.2;12
74432;PMS7003;62865;53.146;23.172;2022-12-29T22:00:08;22.2;19.4;12.4
74432;PMS7003;62865;53.146;23.172;2022-12-29T22:04:54;19.6;17.6;11.6
74432;PMS7003;62865;53.146;23.172;2022-12-29T22:09:54;22.4;19.8;12.6
74432;PMS7003;62865;53.146;23.172;2022-12-29T22:15:14;23.2;19;12.4
74432;PMS7003;62865;53.146;23.172;2022-12-29T22:19:54;23.2;19;12.4
74432;PMS7003;62865;53.146;23.172;2022-12-29T22:24:52;21.6;17;10.6
74432;PMS7003;62865;53.146;23.172;2022-12-29T22:30:04;21.6;18.2;11.4
74432;PMS7003;62865;53.146;23.172;2022-12-29T22:34:32;20.2;17.6;11.2
74432;PMS7003;62865;53.146;23.172;2022-12-29T22:40:14;23;20.2;13.4
74432;PMS7003;62865;53.146;23.172;2022-12-29T22:45:06;23;20.2;13.4
74432;PMS7003;62865;53.146;23.172;2022-12-29T22:49:44;23.6;18.6;12.4
74432;PMS7003;62865;53.146;23.172;2022-12-29T22:54:32;22;19.6;12.4
74432;PMS7003;62865;53.146;23.172;2022-12-29T22:59:52;25;21.8;13.8
74432;PMS7003;62865;53.146;23.172;2022-12-29T23:05:12;25.2;22.2;14
74432;PMS7003;62865;53.146;23.172;2022-12-29T23:09:40;25.2;22.2;14
74432;PMS7003;62865;53.146;23.172;2022-12-29T23:14:32;23.6;19.6;12.6
74432;PMS7003;62865;53.146;23.172;2022-12-29T23:20:04;24.2;20.6;12.6
74432;PMS7003;62865;53.146;23.172;2022-12-29T23:24:40;23.4;19;12.4
74432;PMS7003;62865;53.146;23.172;2022-12-29T23:30:12;27.3;23.3;14.8
74432;PMS7003;62865;53.146;23.172;2022-12-29T23:35:04;27.3;23.3;14.8
74432;PMS7003;62865;53.146;23.172;2022-12-29T23:40:02;27;25;16.5
74432;PMS7003;62865;53.146;23.172;2022-12-29T23:44:50;27.4;23.4;14
74432;PMS7003;62865;53.146;23.172;2022-12-29T23:49:52;24.5;22.8;15.3
74432;PMS7003;62865;53.146;23.172;2022-12-29T23:55:12;26.5;24;16.3
74432;PMS7003;62865;53.146;23.172;2022-12-29T23:59:50;26.5;24;16.3
